Phoenix Sky Harbor International Airport
KPHX : now visible

Airfield :











YOU CAN JOIN US ON...

 
LOGIN :

Register | Disclaimer

   EN    FR    IT 

 









Legend :    VFR   Marginal VFR   IFR   Intensive IFR   Very Intensive IFR
Visi :
Ceiling :
>= 8 km
>= 3000ft
5 to 8 km
1000 to 3000 ft
1500m to 5 km
500 to 1000 ft
800 to 1500m
200 to 500 ft
< 800m
< 200 ft
Symbols :   Thunderstorms  Fog  Heavy snow  Heavy precipitations  Wind > 20 kt






- Airport Elevation : 1135 ft
- IATA code : PHX


KPHX - Phoenix Sky Harbor International

CURRENT METAR :
  • 291351Z 10007KT 10SM FEW110 SCT140 SCT170 09/01 A2992 RMK AO2 SLP123 T00890006 $

EXPIRED METARs :
  • 291251Z 10006KT 10SM FEW180 FEW200 09/00 A2993 RMK AO2 SLP126 T00940000
  • 291151Z 09003KT 10SM SCT180 10/M01 A2994 RMK AO2 SLP129 T01001006 10128 20100 56012

TAF KPHX
Valid from the 29 at 15:00 until the 30 at 18:00 UTC


291433Z 2915/3018 10006KT P6SM BKN130 BKN200
FM292000 30006KT P6SM SCT100 BKN130
FM300100 03009G16KT P6SM FEW080 BKN100
FM300400 05006KT P6SM SCT100
FM300900 07004KT P6SM SKC



MET'MAP, your aeronautical weather chart ! - Copyright ORBIFLY December 2007 - Disclaimer

ORBIFLY MET'MAP TEAM :

Programming & Development : Alexandra Zaïnal
Concept & original design : Baudouin d'Aumeries
Assistance for programming : Marc-Olivier Méhu
Technical & hardware support : Manuel Goepfert

Contact : metmap@orbifly.com




SOURCES & CREDITS :

   NOAA       Earth
Advisory